Terminal Aerodrome Forecast
Issued by NWS Cleveland, OH

Home | Current Version | Previous Version | Graphics & Text | Print | Product List | Glossary Off
Versions: 1 2 3 4 5 6 7 8 9 10 11 12 13 14

000
FTUS41 KCLE 231733
TAFYNG
TAF
KYNG 231733Z 2318/2418 14006KT P6SM SCT250
     FM240800 16009KT P6SM -SHRA OVC020
     FM241100 17012KT P6SM OVC045=

USA.gov is the U.S. government's official web portal to all federal, state and local government web resources and services.